createdAt,value
2019-06-08T00:02:23.346Z,15.80
2019-06-08T00:04:58.944Z,15.80
2019-06-08T00:07:33.309Z,15.80
2019-06-08T00:10:02.315Z,15.70
2019-06-08T00:12:31.272Z,15.70
2019-06-08T00:15:02.376Z,15.70
2019-06-08T00:17:42.874Z,15.70
2019-06-08T00:20:13.334Z,15.70
2019-06-08T00:22:53.820Z,15.70
2019-06-08T00:25:22.619Z,15.70
2019-06-08T00:27:51.557Z,15.70
2019-06-08T00:30:30.724Z,15.60
2019-06-08T00:33:00.490Z,15.60
2019-06-08T00:35:50.086Z,15.60
2019-06-08T00:38:23.053Z,15.60
2019-06-08T00:40:51.958Z,15.60
2019-06-08T00:43:33.170Z,15.60
2019-06-08T00:46:02.258Z,15.60
2019-06-08T00:48:34.988Z,15.50
2019-06-08T00:51:16.773Z,15.60
2019-06-08T00:53:48.812Z,15.60
2019-06-08T00:56:26.522Z,15.60
2019-06-08T00:59:07.756Z,15.60
2019-06-08T01:01:36.621Z,15.60
2019-06-08T01:04:06.441Z,15.60
2019-06-08T01:06:35.198Z,15.50
2019-06-08T01:09:12.967Z,15.50
2019-06-08T01:11:48.791Z,15.50
2019-06-08T01:14:18.880Z,15.40
2019-06-08T01:16:50.214Z,15.40
2019-06-08T01:19:19.245Z,15.40
2019-06-08T01:21:48.630Z,15.40
2019-06-08T01:24:27.942Z,15.40
2019-06-08T01:27:08.740Z,15.40
2019-06-08T01:29:51.767Z,15.40
2019-06-08T01:32:30.616Z,15.40
2019-06-08T01:35:11.277Z,15.50
2019-06-08T01:37:43.468Z,15.50
2019-06-08T01:40:12.366Z,15.50
2019-06-08T01:42:47.328Z,15.50
2019-06-08T01:45:45.267Z,15.40
2019-06-08T01:48:28.139Z,15.40
2019-06-08T01:50:57.851Z,15.30
2019-06-08T01:53:45.803Z,15.40
2019-06-08T01:56:14.595Z,15.40
2019-06-08T01:58:43.579Z,15.40
2019-06-08T02:01:45.667Z,15.40
2019-06-08T02:04:39.020Z,15.30
2019-06-08T02:07:08.124Z,15.40
2019-06-08T02:09:37.514Z,15.40
2019-06-08T02:12:21.405Z,15.40
2019-06-08T02:14:59.601Z,15.40
2019-06-08T02:17:53.161Z,15.40
2019-06-08T02:20:43.474Z,15.40
2019-06-08T02:23:31.080Z,15.50
2019-06-08T02:25:59.897Z,15.50
2019-06-08T02:28:37.978Z,15.40
2019-06-08T02:31:07.087Z,15.40
2019-06-08T02:33:41.286Z,15.40
2019-06-08T02:36:18.024Z,15.40
2019-06-08T02:38:49.022Z,15.40
2019-06-08T02:41:30.796Z,15.40
2019-06-08T02:44:06.077Z,15.30
2019-06-08T02:46:40.464Z,15.30
2019-06-08T02:49:19.081Z,15.30
2019-06-08T02:52:03.275Z,15.20
2019-06-08T02:54:32.978Z,15.20
2019-06-08T02:57:14.736Z,15.20
2019-06-08T03:00:02.418Z,15.20
2019-06-08T03:03:16.513Z,15.20
2019-06-08T03:06:45.654Z,15.10
2019-06-08T03:10:12.075Z,15.20
2019-06-08T03:14:02.120Z,15.20
2019-06-08T03:16:02.836Z,15.20
2019-06-08T03:21:48.412Z,15.20
2019-06-08T03:24:22.870Z,15.20
2019-06-08T03:27:15.098Z,15.20
2019-06-08T03:29:56.540Z,15.20
2019-06-08T03:32:50.754Z,15.20
2019-06-08T03:35:17.090Z,15.30
2019-06-08T03:37:49.008Z,15.30
2019-06-08T03:40:17.987Z,15.30
2019-06-08T03:42:51.007Z,15.30
2019-06-08T03:45:23.268Z,15.30
2019-06-08T03:48:23.028Z,15.30
2019-06-08T03:50:56.686Z,15.30
2019-06-08T03:53:25.623Z,15.30
2019-06-08T03:56:03.921Z,15.30
2019-06-08T03:58:38.387Z,15.30
2019-06-08T04:01:08.627Z,15.30
2019-06-08T04:03:39.966Z,15.30
2019-06-08T04:06:19.003Z,15.40
2019-06-08T04:08:50.255Z,15.40
2019-06-08T04:11:42.438Z,15.50
2019-06-08T04:14:17.606Z,15.50
2019-06-08T04:16:50.157Z,15.50
2019-06-08T04:19:25.321Z,15.50
2019-06-08T04:22:06.807Z,15.60
2019-06-08T04:24:40.168Z,15.60
2019-06-08T04:27:16.667Z,15.50
2019-06-08T04:29:51.417Z,15.50
2019-06-08T04:32:23.418Z,15.50
2019-06-08T04:35:00.345Z,15.50
2019-06-08T04:37:42.482Z,15.50
2019-06-08T04:40:11.281Z,15.50
2019-06-08T04:43:01.339Z,15.60
2019-06-08T04:45:59.390Z,15.60
2019-06-08T04:48:36.019Z,15.60
2019-06-08T04:51:14.346Z,15.60
2019-06-08T04:53:57.153Z,15.50
2019-06-08T04:56:27.337Z,15.60
2019-06-08T04:59:13.870Z,15.60
2019-06-08T05:02:00.042Z,15.60
2019-06-08T05:04:34.737Z,15.60
2019-06-08T05:07:05.523Z,15.70
2019-06-08T05:09:34.180Z,15.70
2019-06-08T05:12:02.758Z,15.60
2019-06-08T05:14:32.211Z,15.70
2019-06-08T05:17:00.877Z,15.60
2019-06-08T05:19:29.544Z,15.60
2019-06-08T05:21:58.265Z,15.60
2019-06-08T05:24:26.894Z,15.60
2019-06-08T05:26:55.774Z,15.60
2019-06-08T05:29:24.402Z,15.70
2019-06-08T05:31:53.066Z,15.70
2019-06-08T05:34:21.742Z,15.70
2019-06-08T05:36:50.362Z,15.70
2019-06-08T05:39:19.306Z,15.60
2019-06-08T05:41:47.906Z,15.60
2019-06-08T05:44:16.503Z,15.70
2019-06-08T05:46:45.745Z,15.70
2019-06-08T05:49:14.417Z,15.70
2019-06-08T05:51:43.749Z,15.70
2019-06-08T05:54:12.451Z,15.80
2019-06-08T05:56:41.956Z,15.80
2019-06-08T05:59:10.678Z,15.80
2019-06-08T06:01:40.437Z,15.80
2019-06-08T06:04:09.144Z,15.80
2019-06-08T06:06:37.747Z,15.90
2019-06-08T06:09:07.800Z,15.90
2019-06-08T06:11:36.434Z,15.90
2019-06-08T06:14:05.403Z,15.90
2019-06-08T06:16:34.071Z,16.00
2019-06-08T06:19:02.684Z,16.00
2019-06-08T06:21:31.309Z,16.00
2019-06-08T06:23:59.962Z,16.00
2019-06-08T06:26:28.535Z,16.00
2019-06-08T06:28:57.188Z,16.10
2019-06-08T06:31:25.810Z,16.10
2019-06-08T06:33:54.722Z,16.10
2019-06-08T06:36:23.423Z,16.20
2019-06-08T06:38:52.335Z,16.20
2019-06-08T06:41:21.123Z,16.30
2019-06-08T06:43:50.447Z,16.20
2019-06-08T06:46:19.185Z,16.20
2019-06-08T06:48:48.300Z,16.30
2019-06-08T06:51:26.177Z,16.30
2019-06-08T06:53:48.831Z,16.20
2019-06-08T06:56:17.598Z,16.20
2019-06-08T06:58:47.256Z,16.20
2019-06-08T07:01:16.082Z,16.20
2019-06-08T07:03:45.991Z,16.20
2019-06-08T07:06:14.939Z,16.20
2019-06-08T07:08:44.087Z,16.20
2019-06-08T07:11:12.807Z,16.30
2019-06-08T07:13:41.652Z,16.30
2019-06-08T07:16:18.274Z,16.20
2019-06-08T07:18:40.714Z,16.20
2019-06-08T07:21:09.350Z,16.20
2019-06-08T07:23:37.958Z,16.20
2019-06-08T07:26:06.654Z,16.30
2019-06-08T07:28:35.318Z,16.30
2019-06-08T07:31:04.518Z,16.30
2019-06-08T07:33:34.175Z,16.30
2019-06-08T07:36:03.228Z,16.40
2019-06-08T07:38:31.904Z,16.50
2019-06-08T07:41:01.889Z,16.60
2019-06-08T07:43:30.622Z,16.70
2019-06-08T07:45:59.295Z,16.80
2019-06-08T07:48:28.475Z,16.80
2019-06-08T07:51:00.297Z,16.80
2019-06-08T07:53:29.510Z,16.80
2019-06-08T07:55:58.108Z,16.90
2019-06-08T07:58:26.702Z,17.00
2019-06-08T08:01:00.726Z,17.00
2019-06-08T08:03:26.954Z,17.10
2019-06-08T08:05:56.723Z,17.10
2019-06-08T08:08:25.784Z,17.10
2019-06-08T08:10:54.672Z,17.10
2019-06-08T08:13:23.984Z,17.20
2019-06-08T08:15:54.060Z,17.20
2019-06-08T08:18:23.046Z,17.30
2019-06-08T08:20:53.013Z,17.30
2019-06-08T08:23:21.795Z,17.40
2019-06-08T08:25:51.457Z,17.60
2019-06-08T08:28:20.149Z,17.60
2019-06-08T08:30:50.567Z,17.70
2019-06-08T08:33:19.148Z,17.60
2019-06-08T08:35:48.219Z,17.80
2019-06-08T08:38:18.074Z,17.90
2019-06-08T08:40:49.717Z,18.10
2019-06-08T08:43:17.928Z,18.20
2019-06-08T08:45:47.698Z,18.30
2019-06-08T08:48:25.312Z,18.40
2019-06-08T08:50:48.333Z,18.50
2019-06-08T08:53:18.033Z,18.60
2019-06-08T08:55:48.021Z,18.60
2019-06-08T08:58:18.610Z,18.90
2019-06-08T09:00:48.701Z,19.20
2019-06-08T09:03:28.731Z,19.40
2019-06-08T09:05:48.300Z,19.40
2019-06-08T09:08:18.239Z,19.50
2019-06-08T09:10:48.113Z,19.80
2019-06-08T09:13:18.582Z,19.90
2019-06-08T09:15:47.989Z,20.10
2019-06-08T09:18:18.800Z,19.90
2019-06-08T09:20:47.965Z,19.70
2019-06-08T09:23:21.615Z,19.60
2019-06-08T09:25:48.354Z,19.60
2019-06-08T09:28:18.668Z,19.70
2019-06-08T09:30:48.353Z,19.90
2019-06-08T09:33:18.767Z,20.10
2019-06-08T09:35:47.979Z,20.10
2019-06-08T09:38:18.648Z,20.20
2019-06-08T09:40:48.905Z,20.40
2019-06-08T09:43:18.965Z,20.50
2019-06-08T09:45:48.419Z,20.70
2019-06-08T09:48:18.226Z,21.30
2019-06-08T09:50:48.627Z,21.80
2019-06-08T09:53:27.989Z,21.70
2019-06-08T09:55:48.304Z,22.20
2019-06-08T09:58:18.131Z,22.90
2019-06-08T10:00:48.598Z,23.80
2019-06-08T10:03:18.690Z,23.90
2019-06-08T10:05:48.434Z,23.20
2019-06-08T10:08:20.334Z,23.70
2019-06-08T10:10:48.400Z,24.10
2019-06-08T10:13:18.876Z,24.60
2019-06-08T10:15:48.655Z,25.10
2019-06-08T10:18:17.862Z,25.00
2019-06-08T10:20:48.175Z,24.50
2019-06-08T10:23:30.611Z,24.10
2019-06-08T10:25:50.682Z,24.10
2019-06-08T10:28:21.752Z,24.00
2019-06-08T10:30:49.626Z,23.70
2019-06-08T10:33:20.419Z,23.20
2019-06-08T10:35:49.062Z,23.00
2019-06-08T10:38:18.242Z,22.80
2019-06-08T10:41:11.957Z,22.50
2019-06-08T10:43:33.331Z,22.00
2019-06-08T10:46:09.436Z,22.60
2019-06-08T10:48:32.364Z,23.10
2019-06-08T10:51:03.841Z,23.60
2019-06-08T10:53:45.152Z,23.80
2019-06-08T10:56:03.080Z,23.80
2019-06-08T10:58:32.107Z,24.90
2019-06-08T11:01:04.227Z,26.00
2019-06-08T11:03:31.209Z,26.50
2019-06-08T11:06:01.174Z,26.40
2019-06-08T11:08:30.318Z,26.20
2019-06-08T11:10:59.984Z,26.70
2019-06-08T11:13:29.525Z,27.60
2019-06-08T11:16:00.087Z,28.00
2019-06-08T11:18:28.766Z,28.20
2019-06-08T11:20:59.496Z,28.70
